This is the latest recevied weather packets stored in our database for station/object KO4RMV-3. If no packets are shown the sender has not sent any weather packets the latest 10 day(s).
| Time | Temp. | Humidity | Pressure | Rain* | Wind** | Luminosity | Snow |
|---|---|---|---|---|---|---|---|
| 1777985106 | 18.33° C | 64% | - | 0 mm | - | - | - |
| 1777984206 | 17.78° C | 66% | - | 0 mm | - | - | - |
| 1777983306 | 17.22° C | 69% | - | 0 mm | - | - | - |
| 1777982406 | 16.67° C | 70% | - | 0 mm | - | - | - |
| 1777981506 | 16.11° C | 71% | - | 0 mm | - | - | - |
| 1777980606 | 16.11° C | 72% | - | 0 mm | - | - | - |
| 1777979706 | 15.56° C | 73% | - | 0 mm | - | - | - |
| 1777978805 | 15.56° C | 73% | - | 0 mm | - | - | - |
| 1777977905 | 15.56° C | 73% | - | 0 mm | - | - | - |
| 1777977005 | 15.56° C | 72% | - | 0 mm | - | - | - |
| 1777976105 | 15.56° C | 71% | - | 0 mm | - | - | - |
| 1777975205 | 16.11° C | 70% | - | 0 mm | - | - | - |
| 1777974305 | 16.11° C | 70% | - | 0 mm | - | - | - |
| 1777973405 | 16.11° C | 69% | - | 0 mm | - | - | - |
| 1777972505 | 16.67° C | 68% | - | 0 mm | - | - | - |
| 1777971605 | 16.67° C | 68% | - | 0 mm | - | - | - |
| 1777970705 | 16.67° C | 68% | - | 0 mm | - | - | - |
| 1777969805 | 16.67° C | 68% | - | 0 mm | - | - | - |
| 1777968906 | 16.67° C | 68% | - | 0 mm | - | - | - |
| 1777968006 | 16.67° C | 67% | - | 0 mm | - | - | - |
| 1777967106 | 16.67° C | 66% | - | 0 mm | - | - | - |
| 1777966206 | 16.67° C | 65% | - | 0 mm | - | - | - |
| 1777965306 | 16.67° C | 65% | - | 0 mm | - | - | - |
| 1777964405 | 16.67° C | 63% | - | 0 mm | - | - | - |
| 1777963505 | 16.67° C | 62% | - | 0 mm | - | - | - |
* Rain latest hour (hover to see other rain measurements)
** Current wind speed in m/s (hover to see current wind gust speed)